sensor_id;sensor_type;location;lat;lon;timestamp;P1;durP1;ratioP1;P2;durP2;ratioP2
70322;SDS011;57735;56.264;43.898;2022-08-19T00:01:42;24.15;;;11.50;;
70322;SDS011;57735;56.264;43.898;2022-08-19T00:04:17;25.27;;;12.05;;
70322;SDS011;57735;56.264;43.898;2022-08-19T00:06:49;24.88;;;10.98;;
70322;SDS011;57735;56.264;43.898;2022-08-19T00:09:21;23.85;;;11.00;;
70322;SDS011;57735;56.264;43.898;2022-08-19T00:11:53;20.13;;;10.85;;
70322;SDS011;57735;56.264;43.898;2022-08-19T00:14:28;21.00;;;10.55;;
70322;SDS011;57735;56.264;43.898;2022-08-19T00:19:33;28.23;;;12.85;;
70322;SDS011;57735;56.264;43.898;2022-08-19T00:22:05;23.25;;;11.60;;
70322;SDS011;57735;56.264;43.898;2022-08-19T00:24:38;29.98;;;14.02;;
70322;SDS011;57735;56.264;43.898;2022-08-19T00:27:11;27.95;;;13.63;;
70322;SDS011;57735;56.264;43.898;2022-08-19T00:29:42;33.08;;;14.63;;
70322;SDS011;57735;56.264;43.898;2022-08-19T00:32:13;34.35;;;15.18;;
70322;SDS011;57735;56.264;43.898;2022-08-19T00:34:44;36.00;;;15.90;;
70322;SDS011;57735;56.264;43.898;2022-08-19T00:37:14;37.65;;;18.15;;
70322;SDS011;57735;56.264;43.898;2022-08-19T00:39:45;42.33;;;20.63;;
70322;SDS011;57735;56.264;43.898;2022-08-19T00:42:17;41.60;;;20.60;;
70322;SDS011;57735;56.264;43.898;2022-08-19T00:44:49;47.30;;;23.15;;
70322;SDS011;57735;56.264;43.898;2022-08-19T00:47:20;50.85;;;23.42;;
70322;SDS011;57735;56.264;43.898;2022-08-19T00:49:52;65.20;;;26.00;;
70322;SDS011;57735;56.264;43.898;2022-08-19T00:52:27;62.35;;;27.92;;
70322;SDS011;57735;56.264;43.898;2022-08-19T00:55:04;66.65;;;28.83;;
70322;SDS011;57735;56.264;43.898;2022-08-19T00:57:42;76.20;;;31.20;;
70322;SDS011;57735;56.264;43.898;2022-08-19T01:00:18;75.55;;;33.50;;
70322;SDS011;57735;56.264;43.898;2022-08-19T01:02:50;83.28;;;34.38;;
70322;SDS011;57735;56.264;43.898;2022-08-19T01:05:24;80.72;;;36.95;;
70322;SDS011;57735;56.264;43.898;2022-08-19T01:08:01;75.32;;;35.70;;
70322;SDS011;57735;56.264;43.898;2022-08-19T01:10:36;83.13;;;37.30;;
70322;SDS011;57735;56.264;43.898;2022-08-19T01:13:09;80.88;;;37.97;;
70322;SDS011;57735;56.264;43.898;2022-08-19T01:15:43;83.60;;;36.28;;
70322;SDS011;57735;56.264;43.898;2022-08-19T01:18:17;78.60;;;37.78;;
70322;SDS011;57735;56.264;43.898;2022-08-19T01:20:50;80.50;;;36.05;;
70322;SDS011;57735;56.264;43.898;2022-08-19T01:23:22;86.50;;;37.30;;
70322;SDS011;57735;56.264;43.898;2022-08-19T01:26:14;94.25;;;39.17;;
70322;SDS011;57735;56.264;43.898;2022-08-19T01:28:48;86.78;;;36.90;;
70322;SDS011;57735;56.264;43.898;2022-08-19T01:31:22;83.87;;;37.23;;
70322;SDS011;57735;56.264;43.898;2022-08-19T01:33:55;80.13;;;35.13;;
70322;SDS011;57735;56.264;43.898;2022-08-19T01:36:33;85.55;;;35.38;;
70322;SDS011;57735;56.264;43.898;2022-08-19T01:39:09;76.72;;;36.22;;
70322;SDS011;57735;56.264;43.898;2022-08-19T01:41:42;92.53;;;37.55;;
70322;SDS011;57735;56.264;43.898;2022-08-19T01:44:13;77.82;;;35.10;;
70322;SDS011;57735;56.264;43.898;2022-08-19T01:46:45;85.45;;;36.28;;
70322;SDS011;57735;56.264;43.898;2022-08-19T01:49:20;71.03;;;33.95;;
70322;SDS011;57735;56.264;43.898;2022-08-19T01:51:53;84.45;;;36.92;;
70322;SDS011;57735;56.264;43.898;2022-08-19T01:54:27;79.35;;;35.72;;
70322;SDS011;57735;56.264;43.898;2022-08-19T01:57:03;87.38;;;38.03;;
70322;SDS011;57735;56.264;43.898;2022-08-19T01:59:39;87.63;;;39.15;;
70322;SDS011;57735;56.264;43.898;2022-08-19T02:04:42;87.53;;;39.38;;
70322;SDS011;57735;56.264;43.898;2022-08-19T02:07:13;87.80;;;38.30;;
70322;SDS011;57735;56.264;43.898;2022-08-19T02:09:44;83.13;;;37.83;;
70322;SDS011;57735;56.264;43.898;2022-08-19T02:12:14;84.63;;;37.53;;
70322;SDS011;57735;56.264;43.898;2022-08-19T02:14:46;81.63;;;37.63;;
70322;SDS011;57735;56.264;43.898;2022-08-19T02:17:17;85.88;;;38.75;;
70322;SDS011;57735;56.264;43.898;2022-08-19T02:19:51;85.45;;;38.60;;
70322;SDS011;57735;56.264;43.898;2022-08-19T02:22:23;94.88;;;38.67;;
70322;SDS011;57735;56.264;43.898;2022-08-19T02:24:55;85.85;;;36.85;;
70322;SDS011;57735;56.264;43.898;2022-08-19T02:27:26;88.10;;;36.95;;
70322;SDS011;57735;56.264;43.898;2022-08-19T02:29:57;80.25;;;35.92;;
70322;SDS011;57735;56.264;43.898;2022-08-19T02:32:30;83.25;;;37.08;;
70322;SDS011;57735;56.264;43.898;2022-08-19T02:35:01;84.20;;;36.47;;
70322;SDS011;57735;56.264;43.898;2022-08-19T02:37:33;85.55;;;35.40;;
70322;SDS011;57735;56.264;43.898;2022-08-19T02:40:25;90.05;;;36.58;;
70322;SDS011;57735;56.264;43.898;2022-08-19T02:42:56;86.75;;;38.60;;
70322;SDS011;57735;56.264;43.898;2022-08-19T02:45:31;79.75;;;36.80;;
70322;SDS011;57735;56.264;43.898;2022-08-19T02:48:03;82.55;;;36.60;;
70322;SDS011;57735;56.264;43.898;2022-08-19T02:50:38;97.97;;;37.35;;
70322;SDS011;57735;56.264;43.898;2022-08-19T02:53:10;88.90;;;37.10;;
70322;SDS011;57735;56.264;43.898;2022-08-19T02:55:45;85.93;;;36.92;;
70322;SDS011;57735;56.264;43.898;2022-08-19T02:58:17;85.05;;;35.67;;
70322;SDS011;57735;56.264;43.898;2022-08-19T03:00:54;81.57;;;35.70;;
70322;SDS011;57735;56.264;43.898;2022-08-19T03:03:26;88.25;;;36.95;;
70322;SDS011;57735;56.264;43.898;2022-08-19T03:06:09;81.25;;;35.22;;
70322;SDS011;57735;56.264;43.898;2022-08-19T03:08:45;84.55;;;37.45;;
70322;SDS011;57735;56.264;43.898;2022-08-19T03:11:20;79.97;;;35.65;;
70322;SDS011;57735;56.264;43.898;2022-08-19T03:13:57;77.95;;;35.08;;
70322;SDS011;57735;56.264;43.898;2022-08-19T03:16:31;83.70;;;35.70;;
70322;SDS011;57735;56.264;43.898;2022-08-19T03:19:03;73.70;;;32.03;;
70322;SDS011;57735;56.264;43.898;2022-08-19T03:21:34;81.88;;;33.03;;
70322;SDS011;57735;56.264;43.898;2022-08-19T03:24:08;80.25;;;32.47;;
70322;SDS011;57735;56.264;43.898;2022-08-19T03:26:43;72.93;;;31.52;;
70322;SDS011;57735;56.264;43.898;2022-08-19T03:29:19;70.50;;;31.65;;
70322;SDS011;57735;56.264;43.898;2022-08-19T03:31:52;97.18;;;32.22;;
70322;SDS011;57735;56.264;43.898;2022-08-19T03:34:25;76.47;;;31.40;;
70322;SDS011;57735;56.264;43.898;2022-08-19T03:37:03;69.57;;;31.13;;
70322;SDS011;57735;56.264;43.898;2022-08-19T03:39:41;73.82;;;30.88;;
70322;SDS011;57735;56.264;43.898;2022-08-19T03:42:12;75.13;;;31.85;;
70322;SDS011;57735;56.264;43.898;2022-08-19T03:44:45;70.97;;;30.98;;
70322;SDS011;57735;56.264;43.898;2022-08-19T03:47:16;70.60;;;30.33;;
70322;SDS011;57735;56.264;43.898;2022-08-19T03:49:49;65.93;;;30.75;;
70322;SDS011;57735;56.264;43.898;2022-08-19T03:52:20;61.13;;;29.58;;
70322;SDS011;57735;56.264;43.898;2022-08-19T03:54:51;74.95;;;31.65;;
70322;SDS011;57735;56.264;43.898;2022-08-19T03:57:22;68.70;;;28.88;;
70322;SDS011;57735;56.264;43.898;2022-08-19T03:59:53;66.10;;;28.98;;
70322;SDS011;57735;56.264;43.898;2022-08-19T04:02:23;81.30;;;29.45;;
70322;SDS011;57735;56.264;43.898;2022-08-19T04:04:54;73.90;;;28.65;;
70322;SDS011;57735;56.264;43.898;2022-08-19T04:07:25;56.38;;;26.20;;
70322;SDS011;57735;56.264;43.898;2022-08-19T04:09:56;69.00;;;27.45;;
70322;SDS011;57735;56.264;43.898;2022-08-19T04:12:28;61.80;;;27.38;;
70322;SDS011;57735;56.264;43.898;2022-08-19T04:14:58;57.28;;;26.58;;
70322;SDS011;57735;56.264;43.898;2022-08-19T04:17:29;58.13;;;24.40;;
70322;SDS011;57735;56.264;43.898;2022-08-19T04:20:00;64.80;;;25.10;;
70322;SDS011;57735;56.264;43.898;2022-08-19T04:22:31;58.00;;;24.48;;
70322;SDS011;57735;56.264;43.898;2022-08-19T04:25:02;51.30;;;23.65;;
70322;SDS011;57735;56.264;43.898;2022-08-19T04:27:34;53.28;;;23.77;;
70322;SDS011;57735;56.264;43.898;2022-08-19T04:30:05;56.30;;;24.63;;
70322;SDS011;57735;56.264;43.898;2022-08-19T04:32:36;58.88;;;25.30;;
70322;SDS011;57735;56.264;43.898;2022-08-19T04:35:09;56.58;;;23.73;;
70322;SDS011;57735;56.264;43.898;2022-08-19T04:37:40;55.70;;;24.58;;
70322;SDS011;57735;56.264;43.898;2022-08-19T04:40:11;56.92;;;23.92;;
70322;SDS011;57735;56.264;43.898;2022-08-19T04:43:01;53.50;;;23.00;;
70322;SDS011;57735;56.264;43.898;2022-08-19T04:45:31;52.42;;;22.52;;
70322;SDS011;57735;56.264;43.898;2022-08-19T04:48:02;55.17;;;23.27;;
70322;SDS011;57735;56.264;43.898;2022-08-19T04:50:33;48.78;;;23.23;;
70322;SDS011;57735;56.264;43.898;2022-08-19T04:53:04;51.05;;;22.42;;
70322;SDS011;57735;56.264;43.898;2022-08-19T04:55:37;53.53;;;22.02;;
70322;SDS011;57735;56.264;43.898;2022-08-19T04:58:09;60.50;;;22.83;;
70322;SDS011;57735;56.264;43.898;2022-08-19T05:00:40;53.05;;;23.58;;
70322;SDS011;57735;56.264;43.898;2022-08-19T05:03:11;50.33;;;22.92;;
70322;SDS011;57735;56.264;43.898;2022-08-19T05:05:44;58.03;;;23.20;;
70322;SDS011;57735;56.264;43.898;2022-08-19T05:08:17;60.83;;;23.70;;
70322;SDS011;57735;56.264;43.898;2022-08-19T05:10:50;55.95;;;23.48;;
70322;SDS011;57735;56.264;43.898;2022-08-19T05:13:22;52.35;;;22.25;;
70322;SDS011;57735;56.264;43.898;2022-08-19T05:15:56;56.60;;;22.85;;
70322;SDS011;57735;56.264;43.898;2022-08-19T05:21:18;53.30;;;21.38;;
70322;SDS011;57735;56.264;43.898;2022-08-19T05:24:08;46.97;;;21.40;;
70322;SDS011;57735;56.264;43.898;2022-08-19T05:26:43;54.28;;;22.50;;
70322;SDS011;57735;56.264;43.898;2022-08-19T05:29:19;50.50;;;21.48;;
70322;SDS011;57735;56.264;43.898;2022-08-19T05:31:52;53.33;;;21.95;;
70322;SDS011;57735;56.264;43.898;2022-08-19T05:36:58;79.75;;;22.48;;
70322;SDS011;57735;56.264;43.898;2022-08-19T05:39:33;51.38;;;20.30;;
70322;SDS011;57735;56.264;43.898;2022-08-19T05:42:09;56.05;;;21.27;;
70322;SDS011;57735;56.264;43.898;2022-08-19T05:44:42;48.20;;;20.70;;
70322;SDS011;57735;56.264;43.898;2022-08-19T05:47:19;53.75;;;20.70;;
70322;SDS011;57735;56.264;43.898;2022-08-19T05:49:50;47.28;;;19.30;;
70322;SDS011;57735;56.264;43.898;2022-08-19T05:52:21;49.03;;;20.40;;
70322;SDS011;57735;56.264;43.898;2022-08-19T05:54:52;43.97;;;19.45;;
70322;SDS011;57735;56.264;43.898;2022-08-19T05:57:25;57.15;;;19.58;;
70322;SDS011;57735;56.264;43.898;2022-08-19T05:59:59;46.75;;;20.20;;
70322;SDS011;57735;56.264;43.898;2022-08-19T06:02:35;41.63;;;17.23;;
70322;SDS011;57735;56.264;43.898;2022-08-19T06:05:09;44.70;;;18.48;;
70322;SDS011;57735;56.264;43.898;2022-08-19T06:07:41;42.75;;;17.95;;
70322;SDS011;57735;56.264;43.898;2022-08-19T06:10:12;46.05;;;20.10;;
70322;SDS011;57735;56.264;43.898;2022-08-19T06:12:43;48.08;;;19.80;;
70322;SDS011;57735;56.264;43.898;2022-08-19T06:15:14;404.15;;;40.10;;
70322;SDS011;57735;56.264;43.898;2022-08-19T06:17:45;54.13;;;18.27;;
70322;SDS011;57735;56.264;43.898;2022-08-19T06:20:16;35.33;;;16.45;;
70322;SDS011;57735;56.264;43.898;2022-08-19T06:22:48;51.33;;;15.50;;
70322;SDS011;57735;56.264;43.898;2022-08-19T06:25:20;44.83;;;16.05;;
70322;SDS011;57735;56.264;43.898;2022-08-19T06:27:51;60.38;;;17.35;;
70322;SDS011;57735;56.264;43.898;2022-08-19T06:30:23;38.90;;;15.90;;
70322;SDS011;57735;56.264;43.898;2022-08-19T06:32:54;36.85;;;16.23;;
70322;SDS011;57735;56.264;43.898;2022-08-19T06:35:27;30.53;;;14.80;;
70322;SDS011;57735;56.264;43.898;2022-08-19T06:37:59;32.65;;;14.35;;
70322;SDS011;57735;56.264;43.898;2022-08-19T06:40:30;26.45;;;12.13;;
70322;SDS011;57735;56.264;43.898;2022-08-19T06:43:01;23.08;;;11.00;;
70322;SDS011;57735;56.264;43.898;2022-08-19T06:45:32;34.63;;;11.40;;
70322;SDS011;57735;56.264;43.898;2022-08-19T06:48:04;24.15;;;10.73;;
70322;SDS011;57735;56.264;43.898;2022-08-19T06:50:38;31.65;;;10.10;;
70322;SDS011;57735;56.264;43.898;2022-08-19T06:53:23;20.45;;;7.90;;
70322;SDS011;57735;56.264;43.898;2022-08-19T06:55:54;16.58;;;7.78;;
70322;SDS011;57735;56.264;43.898;2022-08-19T06:58:30;20.67;;;6.75;;
70322;SDS011;57735;56.264;43.898;2022-08-19T07:01:04;24.30;;;6.85;;
70322;SDS011;57735;56.264;43.898;2022-08-19T07:03:36;14.70;;;6.22;;
70322;SDS011;57735;56.264;43.898;2022-08-19T07:06:12;27.17;;;5.78;;
70322;SDS011;57735;56.264;43.898;2022-08-19T07:08:47;22.70;;;5.78;;
70322;SDS011;57735;56.264;43.898;2022-08-19T07:11:22;13.82;;;4.32;;
70322;SDS011;57735;56.264;43.898;2022-08-19T07:13:52;12.05;;;5.00;;
70322;SDS011;57735;56.264;43.898;2022-08-19T07:16:25;15.77;;;4.85;;
70322;SDS011;57735;56.264;43.898;2022-08-19T07:18:57;117.65;;;9.25;;
70322;SDS011;57735;56.264;43.898;2022-08-19T07:21:29;17.42;;;3.50;;
70322;SDS011;57735;56.264;43.898;2022-08-19T07:24:00;35.80;;;4.60;;
70322;SDS011;57735;56.264;43.898;2022-08-19T07:26:32;30.33;;;3.83;;
70322;SDS011;57735;56.264;43.898;2022-08-19T07:29:09;15.43;;;2.33;;
70322;SDS011;57735;56.264;43.898;2022-08-19T07:31:40;13.07;;;2.78;;
70322;SDS011;57735;56.264;43.898;2022-08-19T07:34:11;175.90;;;13.10;;
70322;SDS011;57735;56.264;43.898;2022-08-19T07:36:44;10.88;;;2.38;;
70322;SDS011;57735;56.264;43.898;2022-08-19T07:39:17;22.08;;;2.92;;
70322;SDS011;57735;56.264;43.898;2022-08-19T07:42:00;23.90;;;2.40;;
70322;SDS011;57735;56.264;43.898;2022-08-19T07:44:34;6.00;;;2.63;;
70322;SDS011;57735;56.264;43.898;2022-08-19T07:47:05;6.32;;;2.28;;
70322;SDS011;57735;56.264;43.898;2022-08-19T07:49:36;8.32;;;2.47;;
70322;SDS011;57735;56.264;43.898;2022-08-19T07:52:08;7.57;;;2.10;;
70322;SDS011;57735;56.264;43.898;2022-08-19T07:54:39;12.98;;;2.40;;
70322;SDS011;57735;56.264;43.898;2022-08-19T07:57:11;96.75;;;8.75;;
70322;SDS011;57735;56.264;43.898;2022-08-19T07:59:42;13.52;;;2.15;;
70322;SDS011;57735;56.264;43.898;2022-08-19T08:02:15;10.50;;;1.90;;
70322;SDS011;57735;56.264;43.898;2022-08-19T08:04:46;7.35;;;2.38;;
70322;SDS011;57735;56.264;43.898;2022-08-19T08:07:38;11.25;;;2.17;;
70322;SDS011;57735;56.264;43.898;2022-08-19T08:10:27;11.38;;;2.55;;
70322;SDS011;57735;56.264;43.898;2022-08-19T08:13:04;11.52;;;2.22;;
70322;SDS011;57735;56.264;43.898;2022-08-19T08:15:53;9.93;;;2.13;;
70322;SDS011;57735;56.264;43.898;2022-08-19T08:18:24;10.55;;;2.97;;
70322;SDS011;57735;56.264;43.898;2022-08-19T08:20:56;7.25;;;2.83;;
70322;SDS011;57735;56.264;43.898;2022-08-19T08:23:30;10.75;;;2.30;;
70322;SDS011;57735;56.264;43.898;2022-08-19T08:26:01;4.43;;;1.95;;
70322;SDS011;57735;56.264;43.898;2022-08-19T08:28:33;12.02;;;2.15;;
70322;SDS011;57735;56.264;43.898;2022-08-19T08:31:04;14.93;;;2.15;;
70322;SDS011;57735;56.264;43.898;2022-08-19T08:33:35;3.28;;;1.55;;
70322;SDS011;57735;56.264;43.898;2022-08-19T08:36:06;14.27;;;1.95;;
70322;SDS011;57735;56.264;43.898;2022-08-19T08:38:42;9.02;;;1.60;;
70322;SDS011;57735;56.264;43.898;2022-08-19T08:41:18;44.78;;;3.95;;
70322;SDS011;57735;56.264;43.898;2022-08-19T08:44:16;22.60;;;2.47;;
70322;SDS011;57735;56.264;43.898;2022-08-19T08:46:55;5.43;;;1.60;;
70322;SDS011;57735;56.264;43.898;2022-08-19T08:52:18;4.80;;;1.40;;
70322;SDS011;57735;56.264;43.898;2022-08-19T08:55:10;9.63;;;1.73;;
70322;SDS011;57735;56.264;43.898;2022-08-19T08:58:01;6.03;;;1.55;;
70322;SDS011;57735;56.264;43.898;2022-08-19T09:00:40;8.00;;;2.00;;
70322;SDS011;57735;56.264;43.898;2022-08-19T09:03:20;4.50;;;1.80;;
70322;SDS011;57735;56.264;43.898;2022-08-19T09:06:00;8.18;;;1.77;;
70322;SDS011;57735;56.264;43.898;2022-08-19T09:17:22;65.65;;;4.38;;
70322;SDS011;57735;56.264;43.898;2022-08-19T09:20:03;154.50;;;11.30;;
70322;SDS011;57735;56.264;43.898;2022-08-19T09:22:39;12.20;;;1.73;;
70322;SDS011;57735;56.264;43.898;2022-08-19T09:25:16;14.50;;;2.10;;
70322;SDS011;57735;56.264;43.898;2022-08-19T09:27:48;7.72;;;2.05;;
70322;SDS011;57735;56.264;43.898;2022-08-19T09:30:23;5.22;;;1.45;;
70322;SDS011;57735;56.264;43.898;2022-08-19T09:32:56;8.43;;;1.70;;
70322;SDS011;57735;56.264;43.898;2022-08-19T09:35:27;4.68;;;1.60;;
70322;SDS011;57735;56.264;43.898;2022-08-19T09:38:02;113.45;;;6.65;;
70322;SDS011;57735;56.264;43.898;2022-08-19T09:40:33;7.60;;;1.80;;
70322;SDS011;57735;56.264;43.898;2022-08-19T09:43:06;9.45;;;1.63;;
70322;SDS011;57735;56.264;43.898;2022-08-19T09:45:38;9.80;;;2.03;;
70322;SDS011;57735;56.264;43.898;2022-08-19T09:48:08;83.13;;;4.93;;
70322;SDS011;57735;56.264;43.898;2022-08-19T09:50:43;20.15;;;2.17;;
70322;SDS011;57735;56.264;43.898;2022-08-19T09:53:14;7.45;;;2.20;;
70322;SDS011;57735;56.264;43.898;2022-08-19T09:55:48;10.70;;;2.00;;
70322;SDS011;57735;56.264;43.898;2022-08-19T09:58:19;46.38;;;3.28;;
70322;SDS011;57735;56.264;43.898;2022-08-19T10:00:50;10.32;;;1.98;;
70322;SDS011;57735;56.264;43.898;2022-08-19T10:03:22;19.08;;;1.88;;
70322;SDS011;57735;56.264;43.898;2022-08-19T10:05:53;9.35;;;1.40;;
70322;SDS011;57735;56.264;43.898;2022-08-19T10:08:27;11.80;;;1.45;;
70322;SDS011;57735;56.264;43.898;2022-08-19T10:11:00;4.00;;;1.05;;
70322;SDS011;57735;56.264;43.898;2022-08-19T10:13:32;4.50;;;1.02;;
70322;SDS011;57735;56.264;43.898;2022-08-19T10:16:07;20.88;;;2.38;;
70322;SDS011;57735;56.264;43.898;2022-08-19T10:18:40;11.93;;;1.67;;
70322;SDS011;57735;56.264;43.898;2022-08-19T10:21:14;3.22;;;1.30;;
70322;SDS011;57735;56.264;43.898;2022-08-19T10:23:52;5.50;;;1.30;;
70322;SDS011;57735;56.264;43.898;2022-08-19T10:26:26;5.47;;;1.40;;
70322;SDS011;57735;56.264;43.898;2022-08-19T10:28:59;7.30;;;1.75;;
70322;SDS011;57735;56.264;43.898;2022-08-19T10:31:31;10.35;;;1.40;;
70322;SDS011;57735;56.264;43.898;2022-08-19T10:34:03;6.80;;;1.60;;
70322;SDS011;57735;56.264;43.898;2022-08-19T10:36:37;5.57;;;1.60;;
70322;SDS011;57735;56.264;43.898;2022-08-19T10:39:09;7.30;;;1.20;;
70322;SDS011;57735;56.264;43.898;2022-08-19T10:41:41;8.02;;;1.40;;
70322;SDS011;57735;56.264;43.898;2022-08-19T10:44:13;10.80;;;1.70;;
70322;SDS011;57735;56.264;43.898;2022-08-19T10:46:48;7.47;;;1.30;;
70322;SDS011;57735;56.264;43.898;2022-08-19T10:49:19;44.92;;;3.67;;
70322;SDS011;57735;56.264;43.898;2022-08-19T10:51:50;7.53;;;1.40;;
70322;SDS011;57735;56.264;43.898;2022-08-19T10:54:40;8.65;;;1.77;;
70322;SDS011;57735;56.264;43.898;2022-08-19T10:57:32;10.48;;;2.13;;
70322;SDS011;57735;56.264;43.898;2022-08-19T11:00:05;17.08;;;6.93;;
70322;SDS011;57735;56.264;43.898;2022-08-19T11:02:40;10.90;;;1.50;;
70322;SDS011;57735;56.264;43.898;2022-08-19T11:05:13;12.02;;;1.60;;
70322;SDS011;57735;56.264;43.898;2022-08-19T11:07:45;10.57;;;1.48;;
70322;SDS011;57735;56.264;43.898;2022-08-19T11:10:19;6.25;;;1.50;;
70322;SDS011;57735;56.264;43.898;2022-08-19T11:12:51;4.20;;;1.60;;
70322;SDS011;57735;56.264;43.898;2022-08-19T11:15:42;19.08;;;1.50;;
70322;SDS011;57735;56.264;43.898;2022-08-19T11:18:30;4.78;;;1.40;;
70322;SDS011;57735;56.264;43.898;2022-08-19T11:23:36;13.23;;;1.75;;
70322;SDS011;57735;56.264;43.898;2022-08-19T11:26:07;9.35;;;1.48;;
70322;SDS011;57735;56.264;43.898;2022-08-19T11:28:38;10.10;;;1.45;;
70322;SDS011;57735;56.264;43.898;2022-08-19T11:31:12;4.70;;;1.25;;
70322;SDS011;57735;56.264;43.898;2022-08-19T11:33:46;22.35;;;1.70;;
70322;SDS011;57735;56.264;43.898;2022-08-19T11:36:20;10.27;;;1.92;;
70322;SDS011;57735;56.264;43.898;2022-08-19T11:38:52;4.82;;;1.50;;
70322;SDS011;57735;56.264;43.898;2022-08-19T11:41:26;15.10;;;1.88;;
70322;SDS011;57735;56.264;43.898;2022-08-19T11:43:57;12.43;;;1.55;;
70322;SDS011;57735;56.264;43.898;2022-08-19T11:46:28;12.57;;;2.45;;
70322;SDS011;57735;56.264;43.898;2022-08-19T11:49:02;14.82;;;1.40;;
70322;SDS011;57735;56.264;43.898;2022-08-19T11:51:35;8.00;;;1.75;;
70322;SDS011;57735;56.264;43.898;2022-08-19T11:54:06;9.05;;;1.70;;
70322;SDS011;57735;56.264;43.898;2022-08-19T11:56:37;9.05;;;1.77;;
70322;SDS011;57735;56.264;43.898;2022-08-19T11:59:08;46.63;;;3.30;;
70322;SDS011;57735;56.264;43.898;2022-08-19T12:01:41;16.05;;;1.85;;
70322;SDS011;57735;56.264;43.898;2022-08-19T12:04:13;11.52;;;1.67;;
70322;SDS011;57735;56.264;43.898;2022-08-19T12:06:44;17.60;;;1.60;;
70322;SDS011;57735;56.264;43.898;2022-08-19T12:09:17;27.73;;;2.17;;
70322;SDS011;57735;56.264;43.898;2022-08-19T12:11:48;5.93;;;1.30;;
70322;SDS011;57735;56.264;43.898;2022-08-19T12:14:19;7.05;;;1.83;;
70322;SDS011;57735;56.264;43.898;2022-08-19T12:16:49;8.23;;;1.73;;
70322;SDS011;57735;56.264;43.898;2022-08-19T12:19:22;4.40;;;1.55;;
70322;SDS011;57735;56.264;43.898;2022-08-19T12:21:58;2.95;;;1.40;;
70322;SDS011;57735;56.264;43.898;2022-08-19T12:24:31;7.80;;;1.50;;
70322;SDS011;57735;56.264;43.898;2022-08-19T12:27:06;12.93;;;1.55;;
70322;SDS011;57735;56.264;43.898;2022-08-19T12:29:36;10.10;;;1.90;;
70322;SDS011;57735;56.264;43.898;2022-08-19T12:32:07;16.17;;;1.88;;
70322;SDS011;57735;56.264;43.898;2022-08-19T12:34:39;4.15;;;1.60;;
70322;SDS011;57735;56.264;43.898;2022-08-19T12:37:13;6.47;;;1.73;;
70322;SDS011;57735;56.264;43.898;2022-08-19T12:39:44;8.10;;;1.42;;
70322;SDS011;57735;56.264;43.898;2022-08-19T12:42:16;4.95;;;2.00;;
70322;SDS011;57735;56.264;43.898;2022-08-19T12:44:50;11.05;;;1.98;;
70322;SDS011;57735;56.264;43.898;2022-08-19T12:47:22;6.28;;;1.40;;
70322;SDS011;57735;56.264;43.898;2022-08-19T12:49:52;19.98;;;1.60;;
70322;SDS011;57735;56.264;43.898;2022-08-19T12:52:25;4.90;;;1.70;;
70322;SDS011;57735;56.264;43.898;2022-08-19T12:54:57;8.57;;;1.80;;
70322;SDS011;57735;56.264;43.898;2022-08-19T12:57:33;11.15;;;1.92;;
70322;SDS011;57735;56.264;43.898;2022-08-19T13:00:08;7.63;;;1.70;;
70322;SDS011;57735;56.264;43.898;2022-08-19T13:02:44;8.63;;;1.60;;
70322;SDS011;57735;56.264;43.898;2022-08-19T13:05:17;7.88;;;1.88;;
70322;SDS011;57735;56.264;43.898;2022-08-19T13:07:52;14.18;;;1.90;;
70322;SDS011;57735;56.264;43.898;2022-08-19T13:10:28;7.38;;;2.50;;
70322;SDS011;57735;56.264;43.898;2022-08-19T13:13:07;10.73;;;1.77;;
70322;SDS011;57735;56.264;43.898;2022-08-19T13:15:40;11.70;;;2.10;;
70322;SDS011;57735;56.264;43.898;2022-08-19T13:18:12;11.85;;;1.95;;
70322;SDS011;57735;56.264;43.898;2022-08-19T13:20:47;11.88;;;2.10;;
70322;SDS011;57735;56.264;43.898;2022-08-19T13:23:17;9.05;;;2.10;;
70322;SDS011;57735;56.264;43.898;2022-08-19T13:26:02;8.30;;;1.83;;
70322;SDS011;57735;56.264;43.898;2022-08-19T13:28:36;14.20;;;2.13;;
70322;SDS011;57735;56.264;43.898;2022-08-19T13:31:26;18.90;;;2.33;;
70322;SDS011;57735;56.264;43.898;2022-08-19T13:34:19;13.13;;;2.25;;
70322;SDS011;57735;56.264;43.898;2022-08-19T13:36:59;16.17;;;2.72;;
70322;SDS011;57735;56.264;43.898;2022-08-19T13:39:33;10.77;;;2.17;;
70322;SDS011;57735;56.264;43.898;2022-08-19T13:42:06;24.70;;;3.75;;
70322;SDS011;57735;56.264;43.898;2022-08-19T13:44:37;6.72;;;1.63;;
70322;SDS011;57735;56.264;43.898;2022-08-19T13:47:08;8.75;;;1.85;;
70322;SDS011;57735;56.264;43.898;2022-08-19T13:49:42;38.03;;;4.22;;
70322;SDS011;57735;56.264;43.898;2022-08-19T13:52:13;24.58;;;3.20;;
70322;SDS011;57735;56.264;43.898;2022-08-19T13:54:44;25.75;;;4.60;;
70322;SDS011;57735;56.264;43.898;2022-08-19T13:57:15;17.63;;;2.75;;
70322;SDS011;57735;56.264;43.898;2022-08-19T13:59:46;11.77;;;2.42;;
70322;SDS011;57735;56.264;43.898;2022-08-19T14:02:17;12.52;;;2.50;;
70322;SDS011;57735;56.264;43.898;2022-08-19T14:04:51;2.70;;;1.98;;
70322;SDS011;57735;56.264;43.898;2022-08-19T14:07:25;3.67;;;1.80;;
70322;SDS011;57735;56.264;43.898;2022-08-19T14:09:58;6.80;;;2.05;;
70322;SDS011;57735;56.264;43.898;2022-08-19T14:12:35;9.85;;;2.20;;
70322;SDS011;57735;56.264;43.898;2022-08-19T14:15:09;6.95;;;1.75;;
70322;SDS011;57735;56.264;43.898;2022-08-19T14:17:44;14.35;;;2.33;;
70322;SDS011;57735;56.264;43.898;2022-08-19T14:20:19;9.95;;;1.73;;
70322;SDS011;57735;56.264;43.898;2022-08-19T14:22:51;11.32;;;2.42;;
70322;SDS011;57735;56.264;43.898;2022-08-19T14:25:24;11.40;;;3.08;;
70322;SDS011;57735;56.264;43.898;2022-08-19T14:27:57;7.22;;;2.03;;
70322;SDS011;57735;56.264;43.898;2022-08-19T14:30:30;10.35;;;2.45;;
70322;SDS011;57735;56.264;43.898;2022-08-19T14:33:03;14.02;;;1.80;;
70322;SDS011;57735;56.264;43.898;2022-08-19T14:35:35;8.95;;;1.67;;
70322;SDS011;57735;56.264;43.898;2022-08-19T14:38:06;16.92;;;2.45;;
70322;SDS011;57735;56.264;43.898;2022-08-19T14:40:47;14.55;;;2.30;;
70322;SDS011;57735;56.264;43.898;2022-08-19T14:43:19;9.10;;;1.88;;
70322;SDS011;57735;56.264;43.898;2022-08-19T14:45:50;11.82;;;2.10;;
70322;SDS011;57735;56.264;43.898;2022-08-19T14:48:21;11.80;;;2.10;;
70322;SDS011;57735;56.264;43.898;2022-08-19T14:50:52;11.93;;;2.30;;
70322;SDS011;57735;56.264;43.898;2022-08-19T14:53:23;19.90;;;2.42;;
70322;SDS011;57735;56.264;43.898;2022-08-19T14:55:53;16.63;;;3.53;;
70322;SDS011;57735;56.264;43.898;2022-08-19T14:58:24;16.73;;;2.38;;
70322;SDS011;57735;56.264;43.898;2022-08-19T15:00:56;10.70;;;2.05;;
70322;SDS011;57735;56.264;43.898;2022-08-19T15:03:30;9.82;;;2.50;;
70322;SDS011;57735;56.264;43.898;2022-08-19T15:06:03;16.85;;;2.53;;
70322;SDS011;57735;56.264;43.898;2022-08-19T15:08:35;9.60;;;2.42;;
70322;SDS011;57735;56.264;43.898;2022-08-19T15:11:10;10.75;;;2.70;;
70322;SDS011;57735;56.264;43.898;2022-08-19T15:13:45;15.10;;;3.25;;
70322;SDS011;57735;56.264;43.898;2022-08-19T15:16:20;9.63;;;2.42;;
70322;SDS011;57735;56.264;43.898;2022-08-19T15:18:53;12.43;;;3.45;;
70322;SDS011;57735;56.264;43.898;2022-08-19T15:23:58;10.20;;;2.33;;